UAL426 KDTW-KORD
Flight info
| Callsign | UAL426 |
|---|---|
| Flight time | 0h 44m |
| Altitude | 28000 |
| Route | KAYLN3 SMUUV WYNDE3 |
| Aircraft | A319/M-SDE3FGHIRWY/LB1 |
Departure
| Time | 2026-05-05 12:33 |
|---|---|
| Airport | Detroit Metropolitan Wayne County Airport (KDTW) |
Arrival
| Time | 2026-05-05 13:18 |
|---|---|
| Airport | Chicago O'Hare International Airport (KORD) |
| Time | Latitude | Longitude | Altitude | Speed | Heading |
|---|---|---|---|---|---|
| 2026-05-05 12:11 | 42.22225 | -83.35204 | 646 ft | 0 kts | 76° |
| 2026-05-05 12:23 | 42.22221 | -83.35224 | 646 ft | 3 kts | 76° |
| 2026-05-05 12:24 | 42.22216 | -83.35250 | 648 ft | 3 kts | 73° |
| 2026-05-05 12:24 | 42.22209 | -83.35275 | 648 ft | 3 kts | 63° |
| 2026-05-05 12:24 | 42.22199 | -83.35296 | 646 ft | 3 kts | 29° |
| 2026-05-05 12:24 | 42.22190 | -83.35301 | 649 ft | 1 kts | 329° |
| 2026-05-05 12:25 | 42.22185 | -83.35297 | 649 ft | 0 kts | 328° |
| 2026-05-05 12:29 | 42.22204 | -83.35313 | 646 ft | 6 kts | 328° |
| 2026-05-05 12:29 | 42.22254 | -83.35353 | 647 ft | 11 kts | 340° |
| 2026-05-05 12:29 | 42.22329 | -83.35307 | 646 ft | 14 kts | 35° |
| 2026-05-05 12:29 | 42.22420 | -83.35236 | 646 ft | 16 kts | 28° |
| 2026-05-05 12:30 | 42.22527 | -83.35156 | 646 ft | 19 kts | 30° |
| 2026-05-05 12:30 | 42.22650 | -83.35067 | 646 ft | 21 kts | 28° |
| 2026-05-05 12:30 | 42.22786 | -83.34965 | 647 ft | 23 kts | 28° |
| 2026-05-05 12:30 | 42.22914 | -83.34870 | 648 ft | 17 kts | 28° |
| 2026-05-05 12:31 | 42.23006 | -83.34823 | 647 ft | 13 kts | 4° |
| 2026-05-05 12:31 | 42.23070 | -83.34911 | 647 ft | 15 kts | 300° |
| 2026-05-05 12:31 | 42.23103 | -83.35015 | 646 ft | 6 kts | 243° |
| 2026-05-05 12:31 | 42.23096 | -83.35020 | 646 ft | 0 kts | 208° |
| 2026-05-05 12:32 | 42.23072 | -83.35038 | 646 ft | 22 kts | 209° |
| 2026-05-05 12:32 | 42.22739 | -83.35282 | 647 ft | 86 kts | 208° |
| 2026-05-05 12:32 | 42.22039 | -83.35800 | 646 ft | 142 kts | 208° |
| 2026-05-05 12:33 | 42.21101 | -83.36491 | 1120 ft | 155 kts | 210° |
| 2026-05-05 12:33 | 42.20163 | -83.37166 | 1892 ft | 154 kts | 213° |
| 2026-05-05 12:33 | 42.19214 | -83.37864 | 2566 ft | 160 kts | 218° |
| 2026-05-05 12:33 | 42.18449 | -83.39049 | 2942 ft | 179 kts | 243° |
| 2026-05-05 12:34 | 42.17702 | -83.40531 | 3353 ft | 204 kts | 236° |
| 2026-05-05 12:34 | 42.16762 | -83.42152 | 3844 ft | 231 kts | 234° |
| 2026-05-05 12:34 | 42.15726 | -83.43875 | 4776 ft | 239 kts | 233° |
| 2026-05-05 12:34 | 42.14665 | -83.45644 | 5842 ft | 244 kts | 234° |
| 2026-05-05 12:35 | 42.13621 | -83.47407 | 6909 ft | 245 kts | 234° |
| 2026-05-05 12:35 | 42.12555 | -83.49218 | 7951 ft | 248 kts | 234° |
| 2026-05-05 12:35 | 42.11477 | -83.51052 | 8968 ft | 251 kts | 234° |
| 2026-05-05 12:35 | 42.10386 | -83.52911 | 9924 ft | 255 kts | 234° |
| 2026-05-05 12:36 | 42.09247 | -83.54855 | 10469 ft | 275 kts | 234° |
| 2026-05-05 12:36 | 42.08036 | -83.56950 | 10782 ft | 298 kts | 237° |
| 2026-05-05 12:36 | 42.07105 | -83.59502 | 11260 ft | 310 kts | 253° |
| 2026-05-05 12:36 | 42.06805 | -83.62391 | 11995 ft | 317 kts | 270° |
| 2026-05-05 12:37 | 42.07226 | -83.65331 | 12783 ft | 326 kts | 287° |
| 2026-05-05 12:37 | 42.08358 | -83.68022 | 13585 ft | 335 kts | 301° |
| 2026-05-05 12:37 | 42.09745 | -83.70574 | 14304 ft | 338 kts | 301° |
| 2026-05-05 12:37 | 42.11139 | -83.73137 | 14997 ft | 341 kts | 301° |
| 2026-05-05 12:38 | 42.12550 | -83.75746 | 15689 ft | 345 kts | 300° |
| 2026-05-05 12:38 | 42.13952 | -83.78344 | 16381 ft | 349 kts | 300° |
| 2026-05-05 12:38 | 42.15384 | -83.81001 | 17071 ft | 353 kts | 300° |
| 2026-05-05 12:38 | 42.16835 | -83.83705 | 17776 ft | 357 kts | 300° |
| 2026-05-05 12:39 | 42.18294 | -83.86430 | 18409 ft | 360 kts | 300° |
| 2026-05-05 12:39 | 42.19769 | -83.89182 | 19079 ft | 363 kts | 300° |
| 2026-05-05 12:39 | 42.21253 | -83.91944 | 19777 ft | 364 kts | 300° |
| 2026-05-05 12:39 | 42.22737 | -83.94707 | 20475 ft | 364 kts | 300° |
| 2026-05-05 12:40 | 42.24224 | -83.97478 | 21149 ft | 365 kts | 300° |
| 2026-05-05 12:40 | 42.25712 | -84.00261 | 21813 ft | 365 kts | 299° |
| 2026-05-05 12:40 | 42.27179 | -84.03009 | 22425 ft | 366 kts | 299° |
| 2026-05-05 12:40 | 42.28670 | -84.05808 | 23028 ft | 367 kts | 299° |
| 2026-05-05 12:41 | 42.30168 | -84.08619 | 23572 ft | 369 kts | 299° |
| 2026-05-05 12:41 | 42.31670 | -84.11436 | 24033 ft | 371 kts | 299° |
| 2026-05-05 12:41 | 42.33182 | -84.14277 | 24480 ft | 373 kts | 299° |
| 2026-05-05 12:41 | 42.34701 | -84.17139 | 24922 ft | 375 kts | 299° |
| 2026-05-05 12:42 | 42.36225 | -84.20015 | 25374 ft | 377 kts | 299° |
| 2026-05-05 12:42 | 42.37740 | -84.22875 | 25811 ft | 380 kts | 299° |
| 2026-05-05 12:42 | 42.39284 | -84.25786 | 26243 ft | 382 kts | 299° |
| 2026-05-05 12:42 | 42.40835 | -84.28719 | 26666 ft | 384 kts | 298° |
| 2026-05-05 12:43 | 42.42122 | -84.31858 | 27092 ft | 378 kts | 288° |
| 2026-05-05 12:43 | 42.42934 | -84.35221 | 27507 ft | 374 kts | 278° |
| 2026-05-05 12:43 | 42.43280 | -84.38702 | 27717 ft | 372 kts | 270° |
| 2026-05-05 12:43 | 42.43371 | -84.42201 | 27748 ft | 371 kts | 270° |
| 2026-05-05 12:44 | 42.43457 | -84.45701 | 27749 ft | 371 kts | 270° |
| 2026-05-05 12:44 | 42.43542 | -84.49154 | 27750 ft | 371 kts | 270° |
| 2026-05-05 12:44 | 42.43631 | -84.52646 | 27749 ft | 371 kts | 270° |
| 2026-05-05 12:44 | 42.43719 | -84.56133 | 27750 ft | 371 kts | 270° |
| 2026-05-05 12:45 | 42.43808 | -84.59627 | 27749 ft | 371 kts | 270° |
| 2026-05-05 12:45 | 42.43895 | -84.63129 | 27774 ft | 371 kts | 270° |
| 2026-05-05 12:45 | 42.43981 | -84.66621 | 27773 ft | 371 kts | 270° |
| 2026-05-05 12:45 | 42.44068 | -84.70112 | 27788 ft | 370 kts | 270° |
| 2026-05-05 12:46 | 42.44153 | -84.73546 | 27792 ft | 369 kts | 270° |
| 2026-05-05 12:46 | 42.44236 | -84.77016 | 27790 ft | 368 kts | 270° |
| 2026-05-05 12:46 | 42.44319 | -84.80477 | 27788 ft | 367 kts | 270° |
| 2026-05-05 12:46 | 42.44399 | -84.83937 | 27791 ft | 367 kts | 270° |
| 2026-05-05 12:47 | 42.44477 | -84.87397 | 27780 ft | 366 kts | 270° |
| 2026-05-05 12:47 | 42.44551 | -84.90846 | 27778 ft | 366 kts | 270° |
| 2026-05-05 12:47 | 42.44627 | -84.94300 | 27775 ft | 366 kts | 270° |
| 2026-05-05 12:47 | 42.44701 | -84.97695 | 27772 ft | 366 kts | 270° |
| 2026-05-05 12:48 | 42.44777 | -85.01146 | 27770 ft | 365 kts | 270° |
| 2026-05-05 12:48 | 42.44853 | -85.04588 | 27761 ft | 365 kts | 270° |
| 2026-05-05 12:48 | 42.44927 | -85.08035 | 27776 ft | 365 kts | 269° |
| 2026-05-05 12:48 | 42.44999 | -85.11465 | 27772 ft | 365 kts | 269° |
| 2026-05-05 12:49 | 42.45070 | -85.14865 | 27767 ft | 365 kts | 269° |
| 2026-05-05 12:49 | 42.45139 | -85.18298 | 27765 ft | 365 kts | 269° |
| 2026-05-05 12:49 | 42.45207 | -85.21739 | 27763 ft | 364 kts | 269° |
| 2026-05-05 12:49 | 42.45272 | -85.25171 | 27761 ft | 364 kts | 269° |
| 2026-05-05 12:50 | 42.45334 | -85.28562 | 27763 ft | 364 kts | 269° |
| 2026-05-05 12:50 | 42.45399 | -85.32032 | 27772 ft | 364 kts | 269° |
| 2026-05-05 12:50 | 42.45467 | -85.35417 | 27771 ft | 364 kts | 269° |
| 2026-05-05 12:50 | 42.45534 | -85.38855 | 27770 ft | 364 kts | 269° |
| 2026-05-05 12:51 | 42.45598 | -85.42285 | 27768 ft | 364 kts | 269° |
| 2026-05-05 12:51 | 42.45658 | -85.45712 | 27775 ft | 363 kts | 269° |
| 2026-05-05 12:51 | 42.45715 | -85.49095 | 27780 ft | 363 kts | 269° |
| 2026-05-05 12:51 | 42.45772 | -85.52511 | 27783 ft | 362 kts | 269° |
| 2026-05-05 12:52 | 42.45827 | -85.55924 | 27783 ft | 362 kts | 269° |
| 2026-05-05 12:52 | 42.45883 | -85.59346 | 27785 ft | 362 kts | 269° |
| 2026-05-05 12:52 | 42.45939 | -85.62753 | 27784 ft | 361 kts | 269° |
| 2026-05-05 12:52 | 42.45994 | -85.66160 | 27783 ft | 361 kts | 269° |
| 2026-05-05 12:53 | 42.46047 | -85.69512 | 27783 ft | 361 kts | 269° |
| 2026-05-05 12:53 | 42.46098 | -85.72912 | 27782 ft | 361 kts | 269° |
| 2026-05-05 12:53 | 42.46151 | -85.76319 | 27782 ft | 361 kts | 269° |
| 2026-05-05 12:53 | 42.46203 | -85.79715 | 27782 ft | 361 kts | 269° |
| 2026-05-05 12:54 | 42.46301 | -85.86511 | 27779 ft | 360 kts | 269° |
| 2026-05-05 12:54 | 42.46347 | -85.89909 | 27784 ft | 360 kts | 269° |
| 2026-05-05 12:54 | 42.46392 | -85.93263 | 27784 ft | 360 kts | 269° |
| 2026-05-05 12:55 | 42.46438 | -85.96653 | 27785 ft | 360 kts | 269° |
| 2026-05-05 12:55 | 42.46483 | -86.00054 | 27785 ft | 360 kts | 269° |
| 2026-05-05 12:55 | 42.46526 | -86.03451 | 27784 ft | 360 kts | 269° |
| 2026-05-05 12:55 | 42.46563 | -86.06836 | 27784 ft | 360 kts | 269° |
| 2026-05-05 12:56 | 42.46600 | -86.10239 | 27796 ft | 365 kts | 269° |
| 2026-05-05 12:56 | 42.46638 | -86.13726 | 27801 ft | 374 kts | 269° |
| 2026-05-05 12:56 | 42.46646 | -86.17260 | 27179 ft | 383 kts | 268° |
| 2026-05-05 12:56 | 42.46624 | -86.20887 | 26134 ft | 386 kts | 268° |
| 2026-05-05 12:57 | 42.46585 | -86.24544 | 25278 ft | 390 kts | 267° |
| 2026-05-05 12:57 | 42.46539 | -86.28235 | 24651 ft | 393 kts | 267° |
| 2026-05-05 12:57 | 42.46495 | -86.31955 | 23943 ft | 393 kts | 267° |
| 2026-05-05 12:57 | 42.46458 | -86.35593 | 23226 ft | 390 kts | 267° |
| 2026-05-05 12:58 | 42.46425 | -86.39264 | 22489 ft | 388 kts | 267° |
| 2026-05-05 12:58 | 42.46393 | -86.42901 | 21807 ft | 385 kts | 267° |
| 2026-05-05 12:58 | 42.46363 | -86.46517 | 21122 ft | 382 kts | 267° |
| 2026-05-05 12:58 | 42.46331 | -86.50107 | 20444 ft | 379 kts | 268° |
| 2026-05-05 12:59 | 42.46297 | -86.53673 | 19762 ft | 377 kts | 268° |
| 2026-05-05 12:59 | 42.46264 | -86.57162 | 19141 ft | 374 kts | 267° |
| 2026-05-05 12:59 | 42.46229 | -86.60678 | 18488 ft | 373 kts | 266° |
| 2026-05-05 13:00 | 42.46151 | -86.67684 | 17354 ft | 370 kts | 266° |
| 2026-05-05 13:00 | 42.46109 | -86.71160 | 16777 ft | 367 kts | 266° |
| 2026-05-05 13:01 | 42.45983 | -86.81402 | 15074 ft | 360 kts | 266° |
| 2026-05-05 13:01 | 42.45942 | -86.84787 | 14487 ft | 357 kts | 266° |
| 2026-05-05 13:01 | 42.45900 | -86.88147 | 13890 ft | 355 kts | 266° |
| 2026-05-05 13:01 | 42.45858 | -86.91486 | 13225 ft | 352 kts | 266° |
| 2026-05-05 13:02 | 42.45817 | -86.94746 | 12619 ft | 349 kts | 267° |
| 2026-05-05 13:02 | 42.45774 | -86.98015 | 11980 ft | 344 kts | 267° |
| 2026-05-05 13:02 | 42.45727 | -87.01246 | 11337 ft | 340 kts | 267° |
| 2026-05-05 13:02 | 42.45676 | -87.04443 | 10892 ft | 338 kts | 267° |
| 2026-05-05 13:03 | 42.45625 | -87.07644 | 10645 ft | 339 kts | 267° |
| 2026-05-05 13:03 | 42.45473 | -87.10739 | 10397 ft | 325 kts | 260° |
| 2026-05-05 13:03 | 42.44869 | -87.13589 | 10157 ft | 306 kts | 250° |
| 2026-05-05 13:03 | 42.44140 | -87.16208 | 9924 ft | 289 kts | 250° |
| 2026-05-05 13:04 | 42.43428 | -87.18665 | 9802 ft | 272 kts | 245° |
| 2026-05-05 13:04 | 42.42312 | -87.20657 | 9676 ft | 263 kts | 227° |
| 2026-05-05 13:04 | 42.40905 | -87.22182 | 9541 ft | 252 kts | 224° |
| 2026-05-05 13:04 | 42.39572 | -87.23596 | 9409 ft | 241 kts | 225° |
| 2026-05-05 13:05 | 42.38269 | -87.24983 | 9280 ft | 235 kts | 225° |
| 2026-05-05 13:05 | 42.36988 | -87.26356 | 9112 ft | 234 kts | 225° |
| 2026-05-05 13:05 | 42.35708 | -87.27728 | 9001 ft | 235 kts | 225° |
| 2026-05-05 13:05 | 42.34428 | -87.29099 | 8973 ft | 235 kts | 225° |
| 2026-05-05 13:06 | 42.33162 | -87.30453 | 8974 ft | 235 kts | 225° |
| 2026-05-05 13:06 | 42.31873 | -87.31826 | 8975 ft | 235 kts | 225° |
| 2026-05-05 13:06 | 42.30584 | -87.33194 | 8987 ft | 236 kts | 225° |
| 2026-05-05 13:06 | 42.29289 | -87.34569 | 8981 ft | 236 kts | 225° |
| 2026-05-05 13:07 | 42.27997 | -87.35941 | 8979 ft | 236 kts | 225° |
| 2026-05-05 13:07 | 42.26723 | -87.37294 | 8975 ft | 236 kts | 225° |
| 2026-05-05 13:07 | 42.25434 | -87.38663 | 8973 ft | 236 kts | 225° |
| 2026-05-05 13:07 | 42.24141 | -87.40039 | 8976 ft | 236 kts | 225° |
| 2026-05-05 13:08 | 42.22850 | -87.41409 | 8972 ft | 236 kts | 225° |
| 2026-05-05 13:08 | 42.21554 | -87.42779 | 8974 ft | 236 kts | 225° |
| 2026-05-05 13:08 | 42.20259 | -87.44145 | 8975 ft | 236 kts | 225° |
| 2026-05-05 13:08 | 42.18962 | -87.45518 | 8914 ft | 237 kts | 225° |
| 2026-05-05 13:09 | 42.17680 | -87.46875 | 8654 ft | 239 kts | 225° |
| 2026-05-05 13:09 | 42.16352 | -87.48283 | 8107 ft | 245 kts | 224° |
| 2026-05-05 13:09 | 42.15025 | -87.49682 | 7822 ft | 241 kts | 224° |
| 2026-05-05 13:09 | 42.13692 | -87.51089 | 7302 ft | 241 kts | 224° |
| 2026-05-05 13:10 | 42.12384 | -87.52467 | 6820 ft | 237 kts | 224° |
| 2026-05-05 13:10 | 42.11102 | -87.53818 | 6289 ft | 237 kts | 224° |
| 2026-05-05 13:10 | 42.09804 | -87.55189 | 5698 ft | 238 kts | 224° |
| 2026-05-05 13:10 | 42.08487 | -87.56578 | 5281 ft | 242 kts | 223° |
| 2026-05-05 13:11 | 42.07159 | -87.57977 | 5043 ft | 240 kts | 223° |
| 2026-05-05 13:11 | 42.05865 | -87.59331 | 4912 ft | 231 kts | 223° |
| 2026-05-05 13:11 | 42.04626 | -87.60629 | 4812 ft | 227 kts | 223° |
| 2026-05-05 13:11 | 42.03405 | -87.61911 | 4700 ft | 216 kts | 223° |
| 2026-05-05 13:12 | 42.02255 | -87.63111 | 4605 ft | 203 kts | 223° |
| 2026-05-05 13:12 | 42.01210 | -87.64266 | 4532 ft | 187 kts | 231° |
| 2026-05-05 13:12 | 42.00511 | -87.65677 | 4289 ft | 177 kts | 251° |
| 2026-05-05 13:12 | 42.00252 | -87.67266 | 4067 ft | 172 kts | 271° |
| 2026-05-05 13:13 | 42.00255 | -87.68867 | 3841 ft | 172 kts | 273° |
| 2026-05-05 13:13 | 42.00258 | -87.70455 | 3603 ft | 172 kts | 273° |
| 2026-05-05 13:13 | 42.00261 | -87.72065 | 3373 ft | 173 kts | 274° |
| 2026-05-05 13:13 | 42.00264 | -87.73688 | 3141 ft | 173 kts | 274° |
| 2026-05-05 13:14 | 42.00267 | -87.75303 | 2901 ft | 170 kts | 274° |
| 2026-05-05 13:14 | 42.00267 | -87.76795 | 2686 ft | 149 kts | 275° |
| 2026-05-05 13:14 | 42.00267 | -87.78074 | 2490 ft | 128 kts | 275° |
| 2026-05-05 13:14 | 42.00269 | -87.78854 | 2381 ft | 123 kts | 275° |
| 2026-05-05 13:15 | 42.00272 | -87.79984 | 2209 ft | 120 kts | 275° |
| 2026-05-05 13:15 | 42.00272 | -87.81096 | 2044 ft | 119 kts | 275° |
| 2026-05-05 13:15 | 42.00269 | -87.82552 | 1877 ft | 117 kts | 275° |
| 2026-05-05 13:15 | 42.00268 | -87.83292 | 1737 ft | 117 kts | 273° |
| 2026-05-05 13:16 | 42.00276 | -87.84371 | 1543 ft | 117 kts | 274° |
| 2026-05-05 13:16 | 42.00282 | -87.85468 | 1364 ft | 117 kts | 274° |
| 2026-05-05 13:16 | 42.00287 | -87.86564 | 1218 ft | 118 kts | 273° |
| 2026-05-05 13:16 | 42.00286 | -87.87674 | 1031 ft | 119 kts | 273° |
| 2026-05-05 13:17 | 42.00283 | -87.88785 | 876 ft | 119 kts | 273° |
| 2026-05-05 13:17 | 42.00282 | -87.89899 | 702 ft | 119 kts | 271° |
| 2026-05-05 13:17 | 42.00282 | -87.90913 | 670 ft | 90 kts | 270° |
| 2026-05-05 13:17 | 42.00282 | -87.91529 | 667 ft | 50 kts | 270° |
| 2026-05-05 13:18 | 42.00281 | -87.91992 | 670 ft | 42 kts | 270° |
| 2026-05-05 13:18 | 42.00263 | -87.92320 | 671 ft | 27 kts | 253° |
| 2026-05-05 13:18 | 42.00200 | -87.92470 | 670 ft | 14 kts | 204° |
| 2026-05-05 13:18 | 42.00144 | -87.92376 | 669 ft | 17 kts | 91° |
| 2026-05-05 13:19 | 42.00145 | -87.92204 | 669 ft | 20 kts | 90° |
| 2026-05-05 13:19 | 42.00145 | -87.92007 | 669 ft | 23 kts | 90° |
| 2026-05-05 13:19 | 42.00145 | -87.91780 | 669 ft | 26 kts | 90° |
| 2026-05-05 13:19 | 42.00098 | -87.91613 | 669 ft | 20 kts | 140° |
| 2026-05-05 13:20 | 41.99983 | -87.91485 | 668 ft | 23 kts | 139° |
| 2026-05-05 13:20 | 41.99857 | -87.91342 | 669 ft | 25 kts | 140° |
| 2026-05-05 13:20 | 41.99718 | -87.91187 | 669 ft | 27 kts | 140° |
| 2026-05-05 13:20 | 41.99604 | -87.91048 | 669 ft | 14 kts | 109° |
| 2026-05-05 13:21 | 41.99655 | -87.90931 | 667 ft | 16 kts | 53° |
| 2026-05-05 13:21 | 41.99716 | -87.90792 | 668 ft | 18 kts | 49° |
| 2026-05-05 13:21 | 41.99800 | -87.90650 | 669 ft | 20 kts | 68° |
| 2026-05-05 13:21 | 41.99785 | -87.90463 | 668 ft | 21 kts | 106° |
| 2026-05-05 13:22 | 41.99744 | -87.90266 | 668 ft | 22 kts | 105° |
| 2026-05-05 13:22 | 41.99702 | -87.90069 | 669 ft | 18 kts | 111° |
| 2026-05-05 13:22 | 41.99590 | -87.90040 | 669 ft | 18 kts | 182° |
| 2026-05-05 13:22 | 41.99464 | -87.90040 | 670 ft | 18 kts | 180° |
| 2026-05-05 13:23 | 41.99329 | -87.90040 | 669 ft | 21 kts | 180° |
| 2026-05-05 13:23 | 41.99177 | -87.90040 | 669 ft | 23 kts | 180° |
| 2026-05-05 13:23 | 41.99003 | -87.90040 | 669 ft | 27 kts | 179° |
| 2026-05-05 13:23 | 41.98797 | -87.90040 | 669 ft | 33 kts | 180° |
| 2026-05-05 13:24 | 41.98546 | -87.90040 | 669 ft | 39 kts | 180° |
| 2026-05-05 13:24 | 41.98369 | -87.90040 | 671 ft | 23 kts | 180° |
| 2026-05-05 13:24 | 41.98288 | -87.90106 | 669 ft | 16 kts | 271° |
| 2026-05-05 13:24 | 41.98288 | -87.90293 | 669 ft | 25 kts | 270° |
| 2026-05-05 13:25 | 41.98288 | -87.90491 | 668 ft | 9 kts | 265° |
| 2026-05-05 13:25 | 41.98234 | -87.90514 | 669 ft | 8 kts | 179° |
| 2026-05-05 13:25 | 41.98208 | -87.90513 | 669 ft | 5 kts | 180° |
| 2026-05-05 13:25 | 41.98196 | -87.90513 | 669 ft | 0 kts | 180° |